Catàleg de serveis del Meteocat
Campanya meteocatpedra

Dades de l'estació automàtica Pinós

?
?
Resum diari 22:00 TU
Dades diàries de l'estació meteorològica
Temperatura mitjana 11.3 °C
Temperatura màxima 17.2 °C 14:17 TU
Temperatura mínima 6.2 °C 3:30 TU
Humitat relativa mitjana 71%
Precipitació acumulada 0.0 mm
Ratxa màxima del vent (6 m) 59.4 km/h - 55º 16:44 TU
Irradiació solar global 11.3 MJ/m2

El tram horari està expressat en Temps Universal (TU). Cal sumar una hora en horari d'hivern i dues en horari d'estiu per passar a l'hora oficial.

Pinós

Metadades estació meteorol´gica
Municipi Pinós
Comarca Solsonès
Altitud 659 m
Data alta 03.07.1995
Estat actual Operativa
Dades de període
Període
TU
TM
°C
TX
°C
TN
°C
HRM
%
PPT
mm
VVM (6 m)
km/h
DVM (6 m)
graus
VVX (6 m)
km/h
RS
W/m2
00:00 - 00:30 7.5 7.6 7.4 97 0.0 6.1 81 15.5 0
00:30 - 01:00 7.5 7.6 7.4 99 0.0 6.1 75 14.4 0
01:00 - 01:30 7.6 7.7 7.5 100 0.0 4.7 83 12.2 0
01:30 - 02:00 7.6 7.7 7.4 100 0.0 4.0 85 10.4 0
02:00 - 02:30 7.1 7.4 6.6 100 0.0 4.7 58 11.2 0
02:30 - 03:00 6.5 6.6 6.4 100 0.0 1.8 317 4.0 0
03:00 - 03:30 6.5 6.7 6.2 100 0.0 2.5 62 7.9 0
03:30 - 04:00 7.1 7.4 6.2 100 0.0 6.1 72 13.7 0
04:00 - 04:30 7.3 7.5 7.2 100 0.0 10.4 68 22.3 0
04:30 - 05:00 7.1 7.2 7.0 100 0.0 11.9 66 24.5 0
05:00 - 05:30 7.0 7.2 7.0 100 0.0 13.0 64 23.8 3
05:30 - 06:00 7.2 7.3 7.2 100 0.0 10.4 66 20.5 27
06:00 - 06:30 7.6 8.0 7.3 100 0.0 8.6 72 16.9 87
06:30 - 07:00 8.6 9.1 8.0 100 0.0 7.2 75 17.3 162
07:00 - 07:30 9.6 9.8 9.1 97 0.0 8.3 70 17.3 234
07:30 - 08:00 10.1 10.4 9.9 89 0.0 11.5 64 26.3 259
08:00 - 08:30 10.4 10.8 10.2 85 0.0 16.2 58 25.9 189
08:30 - 09:00 11.0 11.3 10.3 77 0.0 11.2 55 23.8 237
09:00 - 09:30 11.1 11.2 11.0 76 0.0 18.4 56 37.1 139
09:30 - 10:00 11.7 12.0 11.1 73 0.0 19.1 65 41.8 239
10:00 - 10:30 13.0 13.4 12.1 69 0.0 11.5 79 34.9 319
10:30 - 11:00 13.1 13.3 13.0 63 0.0 20.9 66 40.7 264
11:00 - 11:30 13.9 14.2 13.3 60 0.0 19.1 68 45.7 430
11:30 - 12:00 14.2 14.8 13.7 58 0.0 21.2 62 40.7 372
12:00 - 12:30 15.0 15.4 14.6 55 0.0 17.6 70 38.2 400
12:30 - 13:00 15.1 15.5 14.7 53 0.0 23.0 65 50.0 356
13:00 - 13:30 15.5 15.9 14.9 51 0.0 21.6 70 51.8 427
13:30 - 14:00 16.3 17.0 15.7 49 0.0 23.0 70 57.2 647
14:00 - 14:30 16.7 17.2 16.2 49 0.0 19.4 72 44.6 479
14:30 - 15:00 16.2 16.4 16.0 50 0.0 13.7 77 36.0 273
15:00 - 15:30 15.5 16.0 15.0 51 0.0 22.0 68 51.1 196
15:30 - 16:00 14.7 15.0 14.5 53 0.0 29.9 64 58.3 179
16:00 - 16:30 14.3 14.5 14.0 54 0.0 25.2 69 54.7 118
16:30 - 17:00 13.8 14.0 13.7 54 0.0 29.2 67 59.4 103
17:00 - 17:30 13.7 13.8 13.6 50 0.0 20.9 71 51.5 82
17:30 - 18:00 13.4 13.6 13.1 47 0.0 20.5 71 58.3 42
18:00 - 18:30 13.0 13.2 12.9 46 0.0 23.0 70 56.2 13
18:30 - 19:00 12.7 12.9 12.6 44 0.0 20.5 76 44.6 0
19:00 - 19:30 12.3 12.7 12.0 45 0.0 19.8 73 44.3 0
19:30 - 20:00 11.8 12.0 11.7 51 0.0 22.3 68 49.0 0
20:00 - 20:30 11.6 11.6 11.4 54 0.0 20.9 72 44.6 0
20:30 - 21:00 11.5 11.7 11.4 54 0.0 19.1 73 44.6 0
21:00 - 21:30 11.6 11.7 11.5 54 0.0 19.4 70 47.9 0
21:30 - 22:00 11.7 11.8 11.5 53 0.0 22.0 70 50.4 0
22:00 - 22:30 11.4 11.5 11.2 54 0.0 20.5 69 50.4 0

Les dades en taronja només han passat un control de qualitat automàtic. Resta pendent la seva validació definitiva.